createdAt,value
2023-02-01T00:02:25.915Z,96780.78
2023-02-01T00:07:48.306Z,96803.94
2023-02-01T00:13:09.418Z,96804.94
2023-02-01T00:18:30.046Z,96805.94
2023-02-01T00:23:50.765Z,96820.56
2023-02-01T00:29:17.414Z,96815.50
2023-02-01T00:34:38.560Z,96827.53
2023-02-01T00:40:00.310Z,96804.22
2023-02-01T00:45:21.018Z,96806.78
2023-02-01T00:50:43.455Z,96812.75
2023-02-01T00:56:06.110Z,96810.91
2023-02-01T01:01:28.433Z,96804.13
2023-02-01T01:06:49.644Z,96801.53
2023-02-01T01:12:10.230Z,96804.94
2023-02-01T01:17:32.862Z,96799.72
2023-02-01T01:22:54.193Z,96787.00
2023-02-01T01:28:15.242Z,96780.84
2023-02-01T01:33:36.025Z,96796.22
2023-02-01T01:38:56.867Z,96790.22
2023-02-01T01:44:55.374Z,96810.91
2023-02-01T01:50:21.862Z,96786.09
2023-02-01T01:55:45.906Z,96787.59
2023-02-01T02:01:06.924Z,96793.47
2023-02-01T02:06:33.355Z,96793.28
2023-02-01T02:11:54.359Z,96804.31
2023-02-01T02:17:44.579Z,96788.81
2023-02-01T02:23:32.756Z,96779.59
2023-02-01T02:29:22.632Z,96794.19
2023-02-01T02:34:55.075Z,96814.88
2023-02-01T02:40:23.256Z,96820.19
2023-02-01T02:46:14.412Z,96835.63
2023-02-01T02:52:05.784Z,96825.50
2023-02-01T02:57:49.670Z,96824.06
2023-02-01T03:03:28.850Z,96807.13
2023-02-01T03:08:49.575Z,96797.84
2023-02-01T03:14:11.940Z,96792.94
2023-02-01T03:19:39.099Z,96784.50
2023-02-01T03:25:13.620Z,96776.84
2023-02-01T03:30:38.639Z,96776.69
2023-02-01T03:36:07.726Z,96750.03
2023-02-01T03:41:46.865Z,96757.00
2023-02-01T03:47:21.130Z,96744.16
2023-02-01T03:52:49.790Z,96734.59
2023-02-01T03:58:20.291Z,96730.56
2023-02-01T04:03:41.185Z,96737.84
2023-02-01T04:09:03.781Z,96735.91
2023-02-01T04:14:24.650Z,96746.94
2023-02-01T04:19:45.391Z,96749.63
2023-02-01T04:25:06.900Z,96749.63
2023-02-01T04:30:27.742Z,96736.34
2023-02-01T04:35:48.980Z,96737.09
2023-02-01T04:41:09.532Z,96733.53
2023-02-01T04:46:30.169Z,96728.56
2023-02-01T04:51:50.981Z,96722.84
2023-02-01T04:57:14.351Z,96702.53
2023-02-01T05:02:36.008Z,96693.16
2023-02-01T05:07:57.225Z,96695.75
2023-02-01T05:13:36.598Z,96698.47
2023-02-01T05:18:57.678Z,96698.59
2023-02-01T05:24:21.572Z,96694.25
2023-02-01T05:29:42.138Z,96697.75
2023-02-01T05:35:03.205Z,96697.75
2023-02-01T05:40:24.391Z,96690.56
2023-02-01T05:45:45.204Z,96690.00
2023-02-01T05:51:06.053Z,96684.84
2023-02-01T05:56:27.147Z,96682.03
2023-02-01T06:01:47.939Z,96678.72
2023-02-01T06:07:10.128Z,96670.09
2023-02-01T06:12:31.164Z,96662.28
2023-02-01T06:17:51.894Z,96670.63
2023-02-01T06:23:12.665Z,96658.31
2023-02-01T06:28:33.995Z,96652.06
2023-02-01T06:33:55.137Z,96655.78
2023-02-01T06:39:17.141Z,96632.47
2023-02-01T06:44:37.716Z,96648.66
2023-02-01T06:49:58.445Z,96655.34
2023-02-01T06:55:19.213Z,96645.91
2023-02-01T07:00:40.178Z,96645.56
2023-02-01T07:06:00.915Z,96649.69
2023-02-01T07:11:21.971Z,96653.00
2023-02-01T07:16:42.539Z,96654.38
2023-02-01T07:22:03.306Z,96648.22
2023-02-01T07:27:25.961Z,96642.00
2023-02-01T07:32:46.849Z,96644.28
2023-02-01T07:38:07.371Z,96650.91
2023-02-01T07:43:29.484Z,96640.44
2023-02-01T07:48:50.480Z,96644.75
2023-02-01T07:54:11.039Z,96638.69
2023-02-01T07:59:31.657Z,96638.78
2023-02-01T08:04:52.452Z,96628.84
2023-02-01T08:10:13.944Z,96634.34
2023-02-01T08:15:34.871Z,96628.22
2023-02-01T08:20:55.900Z,96627.28
2023-02-01T08:26:27.092Z,96622.03
2023-02-01T08:31:47.954Z,96633.06
2023-02-01T08:37:08.807Z,96630.97
2023-02-01T08:42:48.085Z,96620.22
2023-02-01T08:48:08.742Z,96608.16
2023-02-01T08:53:29.780Z,96611.66
2023-02-01T08:58:50.990Z,96611.84
2023-02-01T09:04:11.861Z,96619.06
2023-02-01T09:09:32.526Z,96609.06
2023-02-01T09:14:53.249Z,96624.69
2023-02-01T09:20:14.002Z,96612.00
2023-02-01T09:25:34.781Z,96605.19
2023-02-01T09:31:02.585Z,96609.31
2023-02-01T09:36:24.690Z,96602.53
2023-02-01T09:42:04.094Z,96603.81
2023-02-01T09:47:27.145Z,96599.72
2023-02-01T09:53:00.221Z,96582.69
2023-02-01T09:58:27.674Z,96594.16
2023-02-01T10:03:49.610Z,96594.78
2023-02-01T10:09:25.702Z,96594.78
2023-02-01T10:14:52.414Z,96574.91
2023-02-01T10:20:34.449Z,96583.03
2023-02-01T10:26:07.540Z,96582.41
2023-02-01T10:31:36.594Z,96584.97
2023-02-01T10:37:20.464Z,96575.16
2023-02-01T10:42:41.496Z,96573.06
2023-02-01T10:48:05.151Z,96568.75
2023-02-01T10:53:40.738Z,96568.00
2023-02-01T10:59:04.234Z,96561.84
2023-02-01T11:04:27.382Z,96573.41
2023-02-01T11:09:55.963Z,96558.28
2023-02-01T11:15:23.517Z,96571.72
2023-02-01T11:20:47.441Z,96568.84
2023-02-01T11:26:21.393Z,96560.81
2023-02-01T11:31:44.049Z,96554.34
2023-02-01T11:37:05.395Z,96551.59
2023-02-01T11:42:27.742Z,96552.03
2023-02-01T11:47:53.237Z,96564.53
2023-02-01T11:53:32.159Z,96555.69
2023-02-01T11:58:53.105Z,96551.00
2023-02-01T12:04:54.697Z,96555.84
2023-02-01T12:10:40.952Z,96550.97
2023-02-01T12:16:52.515Z,96553.56
2023-02-01T12:22:38.116Z,96542.03
2023-02-01T12:28:36.718Z,96552.22
2023-02-01T12:34:39.469Z,96560.09
2023-02-01T12:40:00.484Z,96556.47
2023-02-01T12:45:32.468Z,96557.63
2023-02-01T12:50:57.074Z,96557.63
2023-02-01T12:56:27.682Z,96543.75
2023-02-01T13:01:57.683Z,96555.25
2023-02-01T13:07:25.145Z,96555.97
2023-02-01T13:12:57.392Z,96559.03
2023-02-01T13:18:21.630Z,96573.19
2023-02-01T13:23:47.005Z,96562.88
2023-02-01T13:29:12.168Z,96558.56
2023-02-01T13:35:01.027Z,96559.34
2023-02-01T13:40:38.494Z,96561.53
2023-02-01T13:46:08.835Z,96560.50
2023-02-01T13:51:43.497Z,96569.75
2023-02-01T13:57:07.622Z,96569.03
2023-02-01T14:02:43.676Z,96567.50
2023-02-01T14:08:16.212Z,96571.44
2023-02-01T14:13:41.851Z,96567.94
2023-02-01T14:19:08.755Z,96572.88
2023-02-01T14:24:33.067Z,96574.53
2023-02-01T14:30:00.504Z,96566.59
2023-02-01T14:35:28.605Z,96561.75
2023-02-01T14:40:49.588Z,96567.00
2023-02-01T14:46:10.201Z,96557.41
2023-02-01T14:51:31.499Z,96560.09
2023-02-01T14:56:53.919Z,96543.59
2023-02-01T15:02:36.032Z,96551.66
2023-02-01T15:08:00.538Z,96562.88
2023-02-01T15:13:27.140Z,96566.59
2023-02-01T15:18:48.220Z,96560.91
2023-02-01T15:24:21.372Z,96567.31
2023-02-01T15:29:41.906Z,96550.81
2023-02-01T15:35:03.458Z,96560.91
2023-02-01T15:40:25.096Z,96554.63
2023-02-01T15:45:46.385Z,96541.84
2023-02-01T15:51:14.163Z,96553.16
2023-02-01T15:56:39.603Z,96550.69
2023-02-01T16:02:00.438Z,96553.34
2023-02-01T16:07:28.491Z,96543.97
2023-02-01T16:12:49.595Z,96544.09
2023-02-01T16:18:13.038Z,96521.72
2023-02-01T16:23:33.645Z,96546.78
2023-02-01T16:28:54.404Z,96536.53
2023-02-01T16:34:20.087Z,96533.22
2023-02-01T16:39:41.121Z,96529.97
2023-02-01T16:45:01.842Z,96519.66
2023-02-01T16:50:25.583Z,96509.22
2023-02-01T16:55:48.691Z,96511.28
2023-02-01T17:01:11.860Z,96505.09
2023-02-01T17:06:37.857Z,96506.84
2023-02-01T17:11:58.769Z,96482.91
2023-02-01T17:17:32.700Z,96477.28
2023-02-01T17:22:57.627Z,96484.25
2023-02-01T17:28:18.672Z,96450.47
2023-02-01T17:33:39.637Z,96466.31
2023-02-01T17:39:06.075Z,96451.69
2023-02-01T17:44:27.884Z,96474.97
2023-02-01T17:49:51.466Z,96447.66
2023-02-01T17:55:22.483Z,96441.78
2023-02-01T18:00:44.753Z,96446.31
2023-02-01T18:06:11.211Z,96432.63
2023-02-01T18:11:33.456Z,96433.44
2023-02-01T18:16:54.327Z,96427.47
2023-02-01T18:22:21.944Z,96435.22
2023-02-01T18:27:42.822Z,96429.94
2023-02-01T18:33:03.960Z,96416.31
2023-02-01T18:38:25.014Z,96415.41
2023-02-01T18:43:46.170Z,96435.09
2023-02-01T18:49:06.834Z,96434.25
2023-02-01T18:54:28.356Z,96435.41
2023-02-01T18:59:49.267Z,96421.19
2023-02-01T19:05:11.771Z,96513.50
2023-02-01T19:10:34.294Z,96543.91
2023-02-01T19:15:55.340Z,96525.78
2023-02-01T19:21:16.767Z,96512.81
2023-02-01T19:26:37.731Z,96534.38
2023-02-01T19:31:58.749Z,96543.69
2023-02-01T19:37:19.914Z,96513.72
2023-02-01T19:42:40.951Z,96520.03
2023-02-01T19:48:03.404Z,96521.63
2023-02-01T19:53:27.146Z,96530.25
2023-02-01T19:58:48.729Z,96499.16
2023-02-01T20:04:08.947Z,96468.63
2023-02-01T20:09:30.131Z,96505.31
2023-02-01T20:14:51.174Z,96516.56
2023-02-01T20:20:11.927Z,96525.16
2023-02-01T20:25:33.662Z,96541.59
2023-02-01T20:30:54.336Z,96514.72
2023-02-01T20:36:15.165Z,96516.22
2023-02-01T20:41:35.805Z,96519.53
2023-02-01T20:46:56.838Z,96509.53
2023-02-01T20:52:17.435Z,96512.00
2023-02-01T20:57:38.609Z,96503.38
2023-02-01T21:02:59.620Z,96504.88
2023-02-01T21:08:20.837Z,96494.13
2023-02-01T21:13:50.451Z,96477.22
2023-02-01T21:19:11.138Z,96494.75
2023-02-01T21:24:31.864Z,96494.19
2023-02-01T21:29:52.506Z,96499.25
2023-02-01T21:35:13.310Z,96494.34
2023-02-01T21:40:34.086Z,96507.94
2023-02-01T21:45:54.821Z,96511.63
2023-02-01T21:51:16.825Z,96525.16
2023-02-01T21:56:38.588Z,96538.53
2023-02-01T22:01:59.608Z,96489.28
2023-02-01T22:07:20.469Z,96508.25
2023-02-01T22:12:41.144Z,96506.84
2023-02-01T22:18:02.106Z,96519.13
2023-02-01T22:23:23.919Z,96500.97
2023-02-01T22:28:44.718Z,96523.81
2023-02-01T22:34:05.735Z,96514.41
2023-02-01T22:39:27.015Z,96517.97
2023-02-01T22:44:47.710Z,96512.63
2023-02-01T22:50:09.126Z,96531.53
2023-02-01T22:55:31.695Z,96531.34
2023-02-01T23:00:52.372Z,96532.53
2023-02-01T23:06:14.476Z,96533.94
2023-02-01T23:11:35.417Z,96525.56
2023-02-01T23:16:56.570Z,96521.19
2023-02-01T23:22:17.022Z,96518.63
2023-02-01T23:27:38.321Z,96532.22
2023-02-01T23:32:58.986Z,96539.91
2023-02-01T23:38:19.622Z,96539.06
2023-02-01T23:43:58.361Z,96545.28
2023-02-01T23:49:19.298Z,96539.16
2023-02-01T23:54:40.056Z,96533.56
